Donvivant — WDF7184 — position and weather

sailwx.info

Track history (hours):
 
Tides and Currents Weather Stations Pressure Air Temp Water Temp Dewpoint Dewpoint Depression Visibility Wind Speed Wind Dir Waves Ship Positions

Donvivant

Owner: maylotte, donald h, green cove springs, FL. More information available from US FCC via Universal Licensing System and Coast Guard Vessel Documentation Center.

Last reported at 2017-Aug-05 14:58 UTC. Time now 2017-Aug-19 05:32 UTC.
Position N 39°04' E 001°40'.
Warning: this ship's position is 13 days out of date.

Length 15 m.

Type: Pleasure craft. MMSI: 367481910.

Date/timePositionNaut miles runAvg speedWind from/ knotsBaromVisibWave heightAir tempDewpointWater temp
2017-Aug-05 14:58N 39°04' E 001°40'5 6.5
2017-Aug-05 14:10N 39°05' E 001°47'2 6.7
2017-Aug-05 13:56N 39°05' E 001°49'5 6.7
2017-Aug-05 13:08N 39°07' E 001°55'1 6.7
2017-Aug-05 12:58N 39°07' E 001°57'3 6.8
2017-Aug-05 12:29N 39°08' E 002°01'3 6.8
2017-Aug-05 12:00N 39°09' E 002°05'3 6.9
2017-Aug-05 11:30N 39°10' E 002°09'4 7.1
2017-Aug-05 10:59N 39°11' E 002°14'3 7.2
2017-Aug-05 10:30N 39°12' E 002°18'4 7.2
2017-Aug-05 09:56N 39°13' E 002°23'3 7.1
2017-Aug-05 09:30N 39°14' E 002°27'4 7.2
2017-Aug-05 08:56N 39°15' E 002°32'4 7.3
2017-Aug-05 08:21N 39°16' E 002°37'3 7.4
2017-Aug-05 07:56N 39°17' E 002°41'3 7.5
2017-Aug-05 07:30N 39°17' E 002°45'4 7.4
2017-Aug-05 06:58N 39°18' E 002°50'3 6.8
2017-Aug-05 06:29N 39°20' E 002°54'3 6.8
2017-Aug-05 06:00N 39°21' E 002°58'0 0.2
2017-Aug-05 05:20N 39°21' E 002°58'0 0.0
2017-Aug-05 04:50N 39°21' E 002°58'0 0.0
2017-Aug-05 04:20N 39°21' E 002°58'0 0.0
2017-Aug-05 03:56N 39°21' E 002°58'0 0.0
2017-Aug-05 03:26N 39°21' E 002°58'0 0.0
2017-Aug-05 01:20N 39°21' E 002°58'0 0.0
2017-Aug-05 00:56N 39°21' E 002°58'0 0.0
2017-Aug-05 00:20N 39°21' E 002°58'0 0.0
2017-Aug-04 23:56N 39°21' E 002°58'0 0.0
2017-Aug-04 23:26N 39°21' E 002°58'0 0.0
2017-Aug-04 22:59N 39°21' E 002°58'0 0.0
2017-Aug-04 22:26N 39°21' E 002°58'0 0.0
2017-Aug-04 21:56N 39°21' E 002°58'0 0.0
2017-Aug-04 21:23N 39°21' E 002°58'0 0.0
2017-Aug-04 20:59N 39°21' E 002°58'0 0.0
2017-Aug-04 20:26N 39°21' E 002°58'0 0.0
2017-Aug-04 19:51N 39°21' E 002°58'0 0.0
2017-Aug-04 19:26N 39°21' E 002°58'0 0.0
2017-Aug-04 18:44N 39°21' E 002°58'0 0.0
2017-Aug-04 18:21N 39°21' E 002°58'0 0.0
2017-Aug-04 17:51N 39°21' E 002°58'1 2.0
2017-Aug-04 17:28N 39°21' E 002°58'5 6.5
2017-Aug-04 16:38N 39°16' E 003°02'  
2017-Jul-27 10:22N 39°50' E 003°12'  
Track history (hours):
 
Tides and Currents Weather Stations Pressure Air Temp Water Temp Dewpoint Dewpoint Depression Visibility Wind Speed Wind Dir Waves Ship Positions

Donvivant

Owner: maylotte, donald h, green cove springs, FL. More information available from US FCC via Universal Licensing System and Coast Guard Vessel Documentation Center.

Last reported at 2017-Aug-05 14:58 UTC. Time now 2017-Aug-19 05:32 UTC.
Position N 39°04' E 001°40'.
Warning: this ship's position is 13 days out of date.

Length 15 m.

Type: Pleasure craft. MMSI: 367481910.

Date/timePositionNaut miles runAvg speedWind from/ knotsBaromVisibWave heightAir tempDewpointWater temp
2017-Aug-05 14:58N 39°04' E 001°40'5 6.5
2017-Aug-05 14:10N 39°05' E 001°47'2 6.7
2017-Aug-05 13:56N 39°05' E 001°49'5 6.7
2017-Aug-05 13:08N 39°07' E 001°55'1 6.7
2017-Aug-05 12:58N 39°07' E 001°57'3 6.8
2017-Aug-05 12:29N 39°08' E 002°01'3 6.8
2017-Aug-05 12:00N 39°09' E 002°05'3 6.9
2017-Aug-05 11:30N 39°10' E 002°09'4 7.1
2017-Aug-05 10:59N 39°11' E 002°14'3 7.2
2017-Aug-05 10:30N 39°12' E 002°18'4 7.2
2017-Aug-05 09:56N 39°13' E 002°23'3 7.1
2017-Aug-05 09:30N 39°14' E 002°27'4 7.2
2017-Aug-05 08:56N 39°15' E 002°32'4 7.3
2017-Aug-05 08:21N 39°16' E 002°37'3 7.4
2017-Aug-05 07:56N 39°17' E 002°41'3 7.5
2017-Aug-05 07:30N 39°17' E 002°45'4 7.4
2017-Aug-05 06:58N 39°18' E 002°50'3 6.8
2017-Aug-05 06:29N 39°20' E 002°54'3 6.8
2017-Aug-05 06:00N 39°21' E 002°58'0 0.2
2017-Aug-05 05:20N 39°21' E 002°58'0 0.0
2017-Aug-05 04:50N 39°21' E 002°58'0 0.0
2017-Aug-05 04:20N 39°21' E 002°58'0 0.0
2017-Aug-05 03:56N 39°21' E 002°58'0 0.0
2017-Aug-05 03:26N 39°21' E 002°58'0 0.0
2017-Aug-05 01:20N 39°21' E 002°58'0 0.0
2017-Aug-05 00:56N 39°21' E 002°58'0 0.0
2017-Aug-05 00:20N 39°21' E 002°58'0 0.0
2017-Aug-04 23:56N 39°21' E 002°58'0 0.0
2017-Aug-04 23:26N 39°21' E 002°58'0 0.0
2017-Aug-04 22:59N 39°21' E 002°58'0 0.0
2017-Aug-04 22:26N 39°21' E 002°58'0 0.0
2017-Aug-04 21:56N 39°21' E 002°58'0 0.0
2017-Aug-04 21:23N 39°21' E 002°58'0 0.0
2017-Aug-04 20:59N 39°21' E 002°58'0 0.0
2017-Aug-04 20:26N 39°21' E 002°58'0 0.0
2017-Aug-04 19:51N 39°21' E 002°58'0 0.0
2017-Aug-04 19:26N 39°21' E 002°58'0 0.0
2017-Aug-04 18:44N 39°21' E 002°58'0 0.0
2017-Aug-04 18:21N 39°21' E 002°58'0 0.0
2017-Aug-04 17:51N 39°21' E 002°58'1 2.0
2017-Aug-04 17:28N 39°21' E 002°58'5 6.5
2017-Aug-04 16:38N 39°16' E 003°02'  
2017-Jul-27 10:22N 39°50' E 003°12'  

Dump ship's entire track history